Terminal Aerodrome Forecast
Issued by NWS

Home | Current Version | Previous Version | Text Only | Print | Product List | Glossary On
Versions: 1 2 3 4 5 6 7 8 9 10 11 12 13
000
FTUS46 KMFR 300010 AAA
TAFRBG
TAF AMD
KRBG 300010Z 3000/3024 25009KT P6SM VCSH SCT070 BKN110
     FM300300 VRB03KT P6SM SCT040 SCT080
     FM300900 18005KT P6SM -RA BKN020 OVC030
     FM301200 20003KT P6SM -SHRA SCT015 BKN025 OVC040=

USA.gov is the U.S. government's official web portal to all federal, state and local government web resources and services.